Capt Jack Green — WDE4207 — position and weather

sailwx.info

Track history (hours):
 
Tides and Currents Weather Stations Pressure Air Temp Water Temp Dewpoint Dewpoint Depression Visibility Wind Speed Wind Dir Waves Ship Positions

Capt Jack Green

Owner: Blessey Enterprises, Inc., harahan, LA. More information available from US FCC via Universal Licensing System and Coast Guard Vessel Documentation Center.

Last reported at 2018-Jan-11 09:38 UTC. Time now 2018-Jan-21 07:11 UTC.
Position N 29°47' W 095°05'.
Warning: this ship's position is 9 days out of date.

Length 23 m; draft 3 m.

Type: Towing. MMSI: 367350170.

Date/timePositionNaut miles runAvg speedWind from/ knotsBaromVisibWave heightAir tempDewpointWater temp
2018-Jan-11 09:38N 29°47' W 095°05'0 0.2
2018-Jan-11 09:24N 29°47' W 095°05'0 0.3
2018-Jan-11 09:00N 29°47' W 095°05'0 0.0
2018-Jan-11 08:30N 29°47' W 095°05'0 0.0
2018-Jan-11 07:58N 29°47' W 095°05'0 0.0
2018-Jan-11 07:29N 29°47' W 095°05'0 0.0
2018-Jan-11 07:00N 29°47' W 095°05'0 0.0
2018-Jan-11 06:30N 29°47' W 095°05'0 0.0
2018-Jan-11 06:01N 29°47' W 095°05'0 0.0
2018-Jan-11 05:29N 29°47' W 095°05'0 0.0
2018-Jan-11 04:57N 29°47' W 095°05'0 0.0
2018-Jan-11 04:25N 29°47' W 095°05'0 0.0
2018-Jan-11 03:56N 29°47' W 095°05'0 0.0
2018-Jan-11 03:11N 29°47' W 095°05'0 0.0
2018-Jan-11 02:45N 29°47' W 095°05'0 0.0
2018-Jan-11 02:22N 29°47' W 095°05'1 0.3
2018-Jan-10 22:34N 29°46' W 095°05'0 4.7
2018-Jan-10 22:29N 29°46' W 095°05'4 0.1
2018-Jan-09 18:29N 29°44' W 095°08'0 0.0
2018-Jan-09 17:24N 29°44' W 095°08'0 0.0
2018-Jan-09 16:59N 29°44' W 095°08'0 0.0
2018-Jan-09 16:28N 29°44' W 095°08'0 0.0
2018-Jan-09 16:00N 29°44' W 095°08'0 0.0
2018-Jan-09 15:29N 29°44' W 095°08'0 0.0
2018-Jan-09 15:00N 29°44' W 095°08'0 0.0
2018-Jan-09 14:28N 29°44' W 095°08'0 0.0
2018-Jan-09 14:00N 29°44' W 095°08'0 0.0
2018-Jan-09 13:29N 29°44' W 095°08'0 0.0
2018-Jan-09 12:59N 29°44' W 095°08'0 0.0
2018-Jan-09 12:30N 29°44' W 095°08'0 0.0
2018-Jan-09 12:00N 29°44' W 095°08'0 0.0
2018-Jan-09 11:30N 29°44' W 095°08'0 0.0
2018-Jan-09 11:00N 29°44' W 095°08'0 0.0
2018-Jan-09 10:30N 29°44' W 095°08'0 0.0
2018-Jan-09 10:00N 29°44' W 095°08'0 0.0
2018-Jan-09 09:30N 29°44' W 095°08'0 0.0
2018-Jan-09 09:00N 29°44' W 095°08'0 0.0
2018-Jan-09 08:30N 29°44' W 095°08'0 0.0
2018-Jan-09 07:59N 29°44' W 095°08'0 0.0
2018-Jan-09 07:30N 29°44' W 095°08'0 0.7
2018-Jan-09 07:00N 29°44' W 095°09'2 5.1
2018-Jan-09 06:30N 29°45' W 095°11'2 4.7
2018-Jan-09 06:00N 29°44' W 095°14'1 1.4
2018-Jan-09 05:30N 29°43' W 095°14'0 0.0
2018-Jan-08 04:43N 29°43' W 095°14'0 0.0
2018-Jan-08 04:25N 29°43' W 095°14'0 0.0
2018-Jan-08 03:48N 29°43' W 095°14'0 0.0
2018-Jan-08 03:30N 29°43' W 095°14'0 0.0
2018-Jan-08 02:53N 29°43' W 095°14'0 0.0
2018-Jan-08 01:10N 29°43' W 095°14'0 0.3
2018-Jan-08 01:00N 29°43' W 095°14'0 0.8
2018-Jan-08 00:30N 29°43' W 095°14'2 4.1
2018-Jan-08 00:00N 29°44' W 095°12'3 5.9
2018-Jan-07 23:30N 29°44' W 095°09'5 0.3
2018-Jan-07 08:36N 29°47' W 095°05'3 0.6
2018-Jan-07 03:35N 29°45' W 095°06'0 0.2
2018-Jan-07 03:30N 29°45' W 095°06'0 0.0
2018-Jan-07 01:29N 29°45' W 095°06'2 0.1
2018-Jan-06 07:58N 29°46' W 095°05'2 3.4
2018-Jan-06 07:21N 29°45' W 095°06'0 0.0
2018-Jan-06 06:50N 29°45' W 095°06'0 0.0
2018-Jan-05 08:18N 29°45' W 095°06'3 2.9
2018-Jan-05 07:23N 29°47' W 095°05'1 3.2
2018-Jan-05 06:58N 29°46' W 095°05'1 0.2
2018-Jan-05 00:55N 29°45' W 095°06'2 1.5
2018-Jan-04 23:24N 29°47' W 095°05'3 0.3
2018-Jan-04 12:08N 29°45' W 095°06'0 0.0
2018-Jan-04 12:00N 29°45' W 095°06'0 0.0
2018-Jan-04 11:29N 29°45' W 095°06'0 0.0
2018-Jan-04 09:36N 29°45' W 095°06'0 0.1
2018-Jan-04 09:30N 29°45' W 095°06'0 0.0
2018-Jan-04 09:00N 29°45' W 095°06'0 0.0
2018-Jan-04 06:34N 29°45' W 095°06'0 0.0
2018-Jan-04 06:29N 29°45' W 095°06'0 0.5
2018-Jan-04 05:56N 29°45' W 095°06'0 0.0
2018-Jan-03 09:20N 29°45' W 095°06'  
Track history (hours):
 
Tides and Currents Weather Stations Pressure Air Temp Water Temp Dewpoint Dewpoint Depression Visibility Wind Speed Wind Dir Waves Ship Positions

Capt Jack Green

Owner: Blessey Enterprises, Inc., harahan, LA. More information available from US FCC via Universal Licensing System and Coast Guard Vessel Documentation Center.

Last reported at 2018-Jan-11 09:38 UTC. Time now 2018-Jan-21 07:11 UTC.
Position N 29°47' W 095°05'.
Warning: this ship's position is 9 days out of date.

Length 23 m; draft 3 m.

Type: Towing. MMSI: 367350170.

Date/timePositionNaut miles runAvg speedWind from/ knotsBaromVisibWave heightAir tempDewpointWater temp
2018-Jan-11 09:38N 29°47' W 095°05'0 0.2
2018-Jan-11 09:24N 29°47' W 095°05'0 0.3
2018-Jan-11 09:00N 29°47' W 095°05'0 0.0
2018-Jan-11 08:30N 29°47' W 095°05'0 0.0
2018-Jan-11 07:58N 29°47' W 095°05'0 0.0
2018-Jan-11 07:29N 29°47' W 095°05'0 0.0
2018-Jan-11 07:00N 29°47' W 095°05'0 0.0
2018-Jan-11 06:30N 29°47' W 095°05'0 0.0
2018-Jan-11 06:01N 29°47' W 095°05'0 0.0
2018-Jan-11 05:29N 29°47' W 095°05'0 0.0
2018-Jan-11 04:57N 29°47' W 095°05'0 0.0
2018-Jan-11 04:25N 29°47' W 095°05'0 0.0
2018-Jan-11 03:56N 29°47' W 095°05'0 0.0
2018-Jan-11 03:11N 29°47' W 095°05'0 0.0
2018-Jan-11 02:45N 29°47' W 095°05'0 0.0
2018-Jan-11 02:22N 29°47' W 095°05'1 0.3
2018-Jan-10 22:34N 29°46' W 095°05'0 4.7
2018-Jan-10 22:29N 29°46' W 095°05'4 0.1
2018-Jan-09 18:29N 29°44' W 095°08'0 0.0
2018-Jan-09 17:24N 29°44' W 095°08'0 0.0
2018-Jan-09 16:59N 29°44' W 095°08'0 0.0
2018-Jan-09 16:28N 29°44' W 095°08'0 0.0
2018-Jan-09 16:00N 29°44' W 095°08'0 0.0
2018-Jan-09 15:29N 29°44' W 095°08'0 0.0
2018-Jan-09 15:00N 29°44' W 095°08'0 0.0
2018-Jan-09 14:28N 29°44' W 095°08'0 0.0
2018-Jan-09 14:00N 29°44' W 095°08'0 0.0
2018-Jan-09 13:29N 29°44' W 095°08'0 0.0
2018-Jan-09 12:59N 29°44' W 095°08'0 0.0
2018-Jan-09 12:30N 29°44' W 095°08'0 0.0
2018-Jan-09 12:00N 29°44' W 095°08'0 0.0
2018-Jan-09 11:30N 29°44' W 095°08'0 0.0
2018-Jan-09 11:00N 29°44' W 095°08'0 0.0
2018-Jan-09 10:30N 29°44' W 095°08'0 0.0
2018-Jan-09 10:00N 29°44' W 095°08'0 0.0
2018-Jan-09 09:30N 29°44' W 095°08'0 0.0
2018-Jan-09 09:00N 29°44' W 095°08'0 0.0
2018-Jan-09 08:30N 29°44' W 095°08'0 0.0
2018-Jan-09 07:59N 29°44' W 095°08'0 0.0
2018-Jan-09 07:30N 29°44' W 095°08'0 0.7
2018-Jan-09 07:00N 29°44' W 095°09'2 5.1
2018-Jan-09 06:30N 29°45' W 095°11'2 4.7
2018-Jan-09 06:00N 29°44' W 095°14'1 1.4
2018-Jan-09 05:30N 29°43' W 095°14'0 0.0
2018-Jan-08 04:43N 29°43' W 095°14'0 0.0
2018-Jan-08 04:25N 29°43' W 095°14'0 0.0
2018-Jan-08 03:48N 29°43' W 095°14'0 0.0
2018-Jan-08 03:30N 29°43' W 095°14'0 0.0
2018-Jan-08 02:53N 29°43' W 095°14'0 0.0
2018-Jan-08 01:10N 29°43' W 095°14'0 0.3
2018-Jan-08 01:00N 29°43' W 095°14'0 0.8
2018-Jan-08 00:30N 29°43' W 095°14'2 4.1
2018-Jan-08 00:00N 29°44' W 095°12'3 5.9
2018-Jan-07 23:30N 29°44' W 095°09'5 0.3
2018-Jan-07 08:36N 29°47' W 095°05'3 0.6
2018-Jan-07 03:35N 29°45' W 095°06'0 0.2
2018-Jan-07 03:30N 29°45' W 095°06'0 0.0
2018-Jan-07 01:29N 29°45' W 095°06'2 0.1
2018-Jan-06 07:58N 29°46' W 095°05'2 3.4
2018-Jan-06 07:21N 29°45' W 095°06'0 0.0
2018-Jan-06 06:50N 29°45' W 095°06'0 0.0
2018-Jan-05 08:18N 29°45' W 095°06'3 2.9
2018-Jan-05 07:23N 29°47' W 095°05'1 3.2
2018-Jan-05 06:58N 29°46' W 095°05'1 0.2
2018-Jan-05 00:55N 29°45' W 095°06'2 1.5
2018-Jan-04 23:24N 29°47' W 095°05'3 0.3
2018-Jan-04 12:08N 29°45' W 095°06'0 0.0
2018-Jan-04 12:00N 29°45' W 095°06'0 0.0
2018-Jan-04 11:29N 29°45' W 095°06'0 0.0
2018-Jan-04 09:36N 29°45' W 095°06'0 0.1
2018-Jan-04 09:30N 29°45' W 095°06'0 0.0
2018-Jan-04 09:00N 29°45' W 095°06'0 0.0
2018-Jan-04 06:34N 29°45' W 095°06'0 0.0
2018-Jan-04 06:29N 29°45' W 095°06'0 0.5
2018-Jan-04 05:56N 29°45' W 095°06'0 0.0
2018-Jan-03 09:20N 29°45' W 095°06'  

Dump ship's entire track history